Time;durP1;ratioP1;P1;durP2;ratioP2;P2;SDS_P1;SDS_P2;PMS_P1;PMS_P2;Temp;Humidity;BMP_temperature;BMP_pressure;BME280_temperature;BME280_humidity;BME280_pressure;Samples;Min_cycle;Max_cycle;Signal;HPM_P1;HPM_P2
2024/03/01 00:02:04;;;;;;;;;;;4.40;84.70;;;;;;5063795;28;20283;-64
2024/03/01 00:04:31;;;;;;;;;;;4.40;84.60;;;;;;5072870;28;19924;-62
2024/03/01 00:07:06;;;;;;;;;;;4.40;84.70;;;;;;5068409;28;20319;-62
2024/03/01 00:09:33;;;;;;;;;;;4.40;84.50;;;;;;5067956;28;19924;-63
2024/03/01 00:12:06;;;;;;;;;;;4.40;84.60;;;;;;5072422;28;19978;-62
2024/03/01 00:14:46;;;;;;;;;;;4.40;84.70;;;;;;5073670;28;19929;-62
2024/03/01 00:17:26;;;;;;;;;;;4.40;84.70;;;;;;5073848;28;20058;-63
2024/03/01 00:19:59;;;;;;;;;;;4.30;84.60;;;;;;5073296;28;19985;-61
2024/03/01 00:22:34;;;;;;;;;;;4.30;84.70;;;;;;5073563;28;20039;-63
2024/03/01 00:25:08;;;;;;;;;;;4.30;84.80;;;;;;5084814;28;19925;-62
2024/03/01 00:27:41;;;;;;;;;;;4.40;84.80;;;;;;5070803;28;19928;-63
2024/03/01 00:30:15;;;;;;;;;;;4.40;84.90;;;;;;5074019;28;19954;-62
2024/03/01 00:32:48;;;;;;;;;;;4.40;84.90;;;;;;5076163;28;20444;-62
2024/03/01 00:35:22;;;;;;;;;;;4.40;84.90;;;;;;5071384;28;19935;-60
2024/03/01 00:37:57;;;;;;;;;;;4.30;85.10;;;;;;5068355;28;19973;-61
2024/03/01 00:40:37;;;;;;;;;;;4.30;85.10;;;;;;5073657;28;19936;-63
2024/03/01 00:43:11;;;;;;;;;;;4.30;85.10;;;;;;5069498;28;20015;-62
2024/03/01 00:45:51;;;;;;;;;;;4.30;85.10;;;;;;5072958;28;19981;-62
2024/03/01 00:48:25;;;;;;;;;;;4.30;85.00;;;;;;5077715;28;20338;-62
2024/03/01 00:50:58;;;;;;;;;;;4.30;85.10;;;;;;5074820;28;19951;-60
2024/03/01 00:53:33;;;;;;;;;;;4.30;85.10;;;;;;5077016;28;20399;-63
2024/03/01 00:56:06;;;;;;;;;;;4.20;85.30;;;;;;5078208;28;20003;-60
2024/03/01 00:58:39;;;;;;;;;;;4.20;85.30;;;;;;5072246;28;19935;-60
2024/03/01 01:01:13;;;;;;;;;;;4.20;85.30;;;;;;5079573;28;19935;-60
2024/03/01 01:03:46;;;;;;;;;;;4.30;85.20;;;;;;5077809;28;19964;-60
2024/03/01 01:06:19;;;;;;;;;;;4.20;85.20;;;;;;5076710;28;19928;-59
2024/03/01 01:08:55;;;;;;;;;;;4.30;85.40;;;;;;5076772;28;20371;-60
2024/03/01 01:11:29;;;;;;;;;;;4.20;85.50;;;;;;5078221;28;19932;-59
2024/03/01 01:14:02;;;;;;;;;;;4.20;85.50;;;;;;5069456;28;19932;-60
2024/03/01 01:16:35;;;;;;;;;;;4.20;85.40;;;;;;5067964;28;19932;-59
2024/03/01 01:19:08;;;;;;;;;;;4.20;85.50;;;;;;5074777;28;20007;-62
2024/03/01 01:21:41;;;;;;;;;;;4.10;85.70;;;;;;5077504;28;19943;-60
2024/03/01 01:24:16;;;;;;;;;;;4.10;85.60;;;;;;5076501;28;20014;-61
2024/03/01 01:26:49;;;;;;;;;;;4.10;85.60;;;;;;5072382;28;19970;-59
2024/03/01 01:29:29;;;;;;;;;;;4.00;85.50;;;;;;5070653;28;19924;-63
2024/03/01 01:32:02;;;;;;;;;;;3.90;85.50;;;;;;5074948;28;19932;-59
2024/03/01 01:34:36;;;;;;;;;;;3.90;85.40;;;;;;5075778;28;19933;-61
2024/03/01 01:37:09;;;;;;;;;;;3.90;85.40;;;;;;5069671;28;20033;-59
2024/03/01 01:39:44;;;;;;;;;;;3.80;85.30;;;;;;5073429;28;19936;-59
2024/03/01 01:42:17;;;;;;;;;;;3.80;85.30;;;;;;5071729;28;20427;-60
2024/03/01 01:44:50;;;;;;;;;;;3.80;85.20;;;;;;5075119;28;19924;-60
2024/03/01 01:47:23;;;;;;;;;;;3.70;85.20;;;;;;5076524;28;20007;-59
2024/03/01 01:49:56;;;;;;;;;;;3.70;85.30;;;;;;5078757;28;19924;-60
2024/03/01 01:52:25;;;;;;;;;;;3.70;85.30;;;;;;5078378;28;20412;-60
2024/03/01 01:55:00;;;;;;;;;;;3.70;85.00;;;;;;5073233;28;19928;-59
2024/03/01 01:57:33;;;;;;;;;;;3.70;85.20;;;;;;5075748;28;20019;-59
2024/03/01 02:00:09;;;;;;;;;;;3.70;85.10;;;;;;5077223;28;19928;-59
2024/03/01 02:02:45;;;;;;;;;;;3.60;85.10;;;;;;5072577;28;21807;-60
2024/03/01 02:05:19;;;;;;;;;;;3.60;85.10;;;;;;5068841;28;19938;-61
2024/03/01 02:07:52;;;;;;;;;;;3.60;85.00;;;;;;5077291;28;19935;-59
2024/03/01 02:10:27;;;;;;;;;;;3.60;85.00;;;;;;5077971;28;19935;-58
2024/03/01 02:13:01;;;;;;;;;;;3.60;84.90;;;;;;5077897;28;20422;-58
2024/03/01 02:15:34;;;;;;;;;;;3.60;85.00;;;;;;5078063;28;20395;-57
2024/03/01 02:18:08;;;;;;;;;;;3.60;84.80;;;;;;5078530;28;19951;-57
2024/03/01 02:20:36;;;;;;;;;;;3.60;84.80;;;;;;5072770;28;19928;-58
2024/03/01 02:23:11;;;;;;;;;;;3.50;84.90;;;;;;5073714;28;20013;-59
2024/03/01 02:25:46;;;;;;;;;;;3.50;84.80;;;;;;5078032;28;20429;-57
2024/03/01 02:28:19;;;;;;;;;;;3.50;84.90;;;;;;5077140;28;19960;-58
2024/03/01 02:30:46;;;;;;;;;;;3.50;84.90;;;;;;5078817;28;19928;-59
2024/03/01 02:33:20;;;;;;;;;;;3.40;84.90;;;;;;5075738;28;19959;-57
2024/03/01 02:35:54;;;;;;;;;;;3.40;84.90;;;;;;5074801;28;19951;-58
2024/03/01 02:38:28;;;;;;;;;;;3.40;84.90;;;;;;5076362;28;20001;-56
2024/03/01 02:41:03;;;;;;;;;;;3.40;85.00;;;;;;5075150;28;19929;-59
2024/03/01 02:43:37;;;;;;;;;;;3.40;85.10;;;;;;5078378;28;20019;-58
2024/03/01 02:46:09;;;;;;;;;;;3.30;85.10;;;;;;5078380;28;19924;-58
2024/03/01 02:48:43;;;;;;;;;;;3.30;85.00;;;;;;5077127;28;19939;-58
2024/03/01 02:51:15;;;;;;;;;;;3.40;84.90;;;;;;5077904;28;19935;-57
2024/03/01 02:53:48;;;;;;;;;;;3.30;85.00;;;;;;5073659;28;19924;-59
2024/03/01 02:56:23;;;;;;;;;;;3.30;85.00;;;;;;5077227;28;20310;-57
2024/03/01 02:58:50;;;;;;;;;;;3.30;84.90;;;;;;5074456;28;19936;-58
2024/03/01 03:01:24;;;;;;;;;;;3.20;84.90;;;;;;5072380;28;19933;-57
2024/03/01 03:03:57;;;;;;;;;;;3.20;84.90;;;;;;5073129;28;19931;-58
2024/03/01 03:06:30;;;;;;;;;;;3.20;84.80;;;;;;5075955;28;19999;-59
2024/03/01 03:09:07;;;;;;;;;;;3.20;84.90;;;;;;5074803;28;19924;-58
2024/03/01 03:11:44;;;;;;;;;;;3.20;84.80;;;;;;5072417;28;20405;-59
2024/03/01 03:14:17;;;;;;;;;;;3.20;84.90;;;;;;5070100;28;20371;-58
2024/03/01 03:16:51;;;;;;;;;;;3.10;85.00;;;;;;5067616;28;19924;-58
2024/03/01 03:19:24;;;;;;;;;;;3.10;85.00;;;;;;5075726;28;20012;-59
2024/03/01 03:21:57;;;;;;;;;;;3.10;85.00;;;;;;5069026;28;20418;-57
2024/03/01 03:24:30;;;;;;;;;;;3.10;85.00;;;;;;5074687;28;19931;-59
2024/03/01 03:27:05;;;;;;;;;;;3.10;84.80;;;;;;5074313;28;20054;-58
2024/03/01 03:29:38;;;;;;;;;;;3.00;84.80;;;;;;5073778;28;19924;-59
2024/03/01 03:32:11;;;;;;;;;;;3.00;84.70;;;;;;5071788;28;20111;-60
2024/03/01 03:34:44;;;;;;;;;;;3.00;84.80;;;;;;5065574;28;19954;-57
2024/03/01 03:37:17;;;;;;;;;;;3.00;84.70;;;;;;5069935;28;19932;-58
2024/03/01 03:39:50;;;;;;;;;;;3.00;85.00;;;;;;5069235;28;19932;-57
2024/03/01 03:42:25;;;;;;;;;;;3.00;84.90;;;;;;5072621;28;20375;-59
2024/03/01 03:44:58;;;;;;;;;;;3.00;84.80;;;;;;5072882;28;19924;-59
2024/03/01 03:47:25;;;;;;;;;;;3.00;84.80;;;;;;5069604;28;19932;-58
2024/03/01 03:49:58;;;;;;;;;;;3.00;84.70;;;;;;5074520;28;19924;-60
2024/03/01 03:52:31;;;;;;;;;;;3.00;84.60;;;;;;5070685;28;20062;-62
2024/03/01 03:55:06;;;;;;;;;;;2.90;84.60;;;;;;5071853;28;19925;-58
2024/03/01 03:57:41;;;;;;;;;;;2.90;84.60;;;;;;5075180;28;19958;-59
2024/03/01 04:00:16;;;;;;;;;;;2.90;84.50;;;;;;5075405;28;19947;-58
2024/03/01 04:02:49;;;;;;;;;;;2.90;84.70;;;;;;5071950;28;19928;-60
2024/03/01 04:05:23;;;;;;;;;;;2.90;84.70;;;;;;5074186;28;20010;-59
2024/03/01 04:07:56;;;;;;;;;;;2.80;84.50;;;;;;5071669;28;19942;-59
2024/03/01 04:10:29;;;;;;;;;;;2.80;84.60;;;;;;5066946;28;20478;-59
2024/03/01 04:13:05;;;;;;;;;;;2.90;84.70;;;;;;5070076;28;20004;-59
2024/03/01 04:15:38;;;;;;;;;;;2.90;84.50;;;;;;5071399;28;19936;-59
2024/03/01 04:18:11;;;;;;;;;;;2.90;84.60;;;;;;5072467;28;19968;-58
2024/03/01 04:20:47;;;;;;;;;;;2.90;84.50;;;;;;5070253;28;19931;-57
2024/03/01 04:23:20;;;;;;;;;;;2.80;84.70;;;;;;5067794;28;20414;-59
2024/03/01 04:25:54;;;;;;;;;;;2.80;84.70;;;;;;5073728;28;20375;-75
2024/03/01 04:28:29;;;;;;;;;;;2.70;84.80;;;;;;5073233;28;20371;-74
2024/03/01 04:31:03;;;;;;;;;;;2.70;84.80;;;;;;5074847;28;19939;-73
2024/03/01 04:33:39;;;;;;;;;;;2.70;84.80;;;;;;5076391;28;19925;-71
2024/03/01 04:36:13;;;;;;;;;;;2.80;84.80;;;;;;5073579;28;19924;-73
2024/03/01 04:38:47;;;;;;;;;;;2.70;84.90;;;;;;5073248;28;19956;-73
2024/03/01 04:41:19;;;;;;;;;;;2.70;85.00;;;;;;5073424;28;19928;-71
2024/03/01 04:43:54;;;;;;;;;;;2.70;85.10;;;;;;5073949;28;19929;-71
2024/03/01 04:46:28;;;;;;;;;;;2.70;85.10;;;;;;5076105;28;19959;-72
2024/03/01 04:49:02;;;;;;;;;;;2.70;84.90;;;;;;5075403;28;19971;-71
2024/03/01 04:51:35;;;;;;;;;;;2.70;84.90;;;;;;5074043;28;19924;-74
2024/03/01 04:54:07;;;;;;;;;;;2.70;84.70;;;;;;5069392;28;19932;-76
2024/03/01 04:56:40;;;;;;;;;;;2.70;84.80;;;;;;5073372;28;20371;-74
2024/03/01 04:59:15;;;;;;;;;;;2.70;84.80;;;;;;5073346;28;20048;-74
2024/03/01 05:01:48;;;;;;;;;;;2.60;84.70;;;;;;5073187;28;19936;-74
2024/03/01 05:04:21;;;;;;;;;;;2.60;84.80;;;;;;5072392;28;20363;-72
2024/03/01 05:06:54;;;;;;;;;;;2.60;84.60;;;;;;5072750;28;19924;-73
2024/03/01 05:09:21;;;;;;;;;;;2.60;84.60;;;;;;5073031;28;19942;-73
2024/03/01 05:11:55;;;;;;;;;;;2.60;84.50;;;;;;5076374;28;19924;-73
2024/03/01 05:14:30;;;;;;;;;;;2.60;84.60;;;;;;5074038;28;19974;-73
2024/03/01 05:17:04;;;;;;;;;;;2.60;84.60;;;;;;5072164;28;19925;-74
2024/03/01 05:19:38;;;;;;;;;;;2.60;84.70;;;;;;5069045;28;19974;-74
2024/03/01 05:22:12;;;;;;;;;;;2.60;84.70;;;;;;5072225;28;20463;-74
2024/03/01 05:24:46;;;;;;;;;;;2.50;84.90;;;;;;5075399;28;19924;-74
2024/03/01 05:27:18;;;;;;;;;;;2.50;84.90;;;;;;5075974;28;19931;-72
2024/03/01 05:29:53;;;;;;;;;;;2.50;84.90;;;;;;5072367;28;19932;-75
2024/03/01 05:32:28;;;;;;;;;;;2.50;85.00;;;;;;5073572;28;19928;-75
2024/03/01 05:35:00;;;;;;;;;;;2.50;85.00;;;;;;5076673;28;19924;-72
2024/03/01 05:37:33;;;;;;;;;;;2.50;85.10;;;;;;5071963;28;20379;-58
2024/03/01 05:40:10;;;;;;;;;;;2.40;85.20;;;;;;5077105;28;20007;-57
2024/03/01 05:42:44;;;;;;;;;;;2.40;85.10;;;;;;5073409;28;19935;-58
2024/03/01 05:45:20;;;;;;;;;;;2.40;85.10;;;;;;5073935;28;20404;-57
2024/03/01 05:47:54;;;;;;;;;;;2.40;85.10;;;;;;5075573;28;20419;-58
2024/03/01 05:50:27;;;;;;;;;;;2.40;85.10;;;;;;5072661;28;19939;-57
2024/03/01 05:53:02;;;;;;;;;;;2.40;85.10;;;;;;5075827;28;19963;-58
2024/03/01 05:55:35;;;;;;;;;;;2.30;85.30;;;;;;5073725;28;19931;-58
2024/03/01 05:58:10;;;;;;;;;;;2.40;85.30;;;;;;5073363;28;19983;-58
2024/03/01 06:00:45;;;;;;;;;;;2.40;85.40;;;;;;5073362;28;19932;-58
2024/03/01 06:03:19;;;;;;;;;;;2.40;85.40;;;;;;5077389;28;20359;-58
2024/03/01 06:05:52;;;;;;;;;;;2.40;85.50;;;;;;5075699;28;20420;-58
2024/03/01 06:08:25;;;;;;;;;;;2.40;85.50;;;;;;5075473;28;19924;-58
2024/03/01 06:10:58;;;;;;;;;;;2.50;85.60;;;;;;5074254;28;20371;-58
2024/03/01 06:13:31;;;;;;;;;;;2.40;85.60;;;;;;5076474;28;19924;-59
2024/03/01 06:16:06;;;;;;;;;;;2.50;85.70;;;;;;5078220;28;19933;-57
2024/03/01 06:18:39;;;;;;;;;;;2.50;85.80;;;;;;5076834;28;19951;-57
2024/03/01 06:21:19;;;;;;;;;;;2.50;85.90;;;;;;5072111;28;19929;-60
2024/03/01 06:23:52;;;;;;;;;;;2.60;86.20;;;;;;5072837;28;19938;-58
2024/03/01 06:26:25;;;;;;;;;;;2.50;86.50;;;;;;5073596;28;19924;-58
2024/03/01 06:28:58;;;;;;;;;;;2.60;86.40;;;;;;5074043;28;19956;-58
2024/03/01 06:31:33;;;;;;;;;;;2.70;86.30;;;;;;5073466;28;20026;-59
2024/03/01 06:34:07;;;;;;;;;;;2.70;86.50;;;;;;5077918;28;19928;-57
2024/03/01 06:36:33;;;;;;;;;;;2.70;86.80;;;;;;5076799;28;19932;-61
2024/03/01 06:39:08;;;;;;;;;;;2.70;86.90;;;;;;5073980;28;19974;-59
2024/03/01 06:41:41;;;;;;;;;;;2.70;87.00;;;;;;5074023;28;19962;-60
2024/03/01 06:44:20;;;;;;;;;;;2.80;86.90;;;;;;5076406;27;19951;-59
2024/03/01 06:46:55;;;;;;;;;;;2.80;86.80;;;;;;5076419;28;19932;-59
2024/03/01 06:49:28;;;;;;;;;;;2.90;86.90;;;;;;5075413;28;20023;-60
2024/03/01 06:52:02;;;;;;;;;;;3.00;87.10;;;;;;5073573;28;19928;-62
2024/03/01 06:54:34;;;;;;;;;;;2.90;87.30;;;;;;5073191;28;20011;-60
2024/03/01 06:57:07;;;;;;;;;;;3.00;87.30;;;;;;5074919;28;19946;-61
2024/03/01 06:59:41;;;;;;;;;;;3.10;87.20;;;;;;5076770;28;19931;-61
2024/03/01 07:02:15;;;;;;;;;;;3.10;87.00;;;;;;5076804;28;19932;-59
2024/03/01 07:04:48;;;;;;;;;;;3.10;87.10;;;;;;5079441;28;19933;-60
2024/03/01 07:07:16;;;;;;;;;;;3.10;87.10;;;;;;5073560;28;19939;-60
2024/03/01 07:09:50;;;;;;;;;;;3.10;87.40;;;;;;5077404;28;19948;-59
2024/03/01 07:12:24;;;;;;;;;;;3.20;87.30;;;;;;5077101;28;19928;-59
2024/03/01 07:14:57;;;;;;;;;;;3.20;87.10;;;;;;5077838;28;19928;-58
2024/03/01 07:17:32;;;;;;;;;;;3.20;87.10;;;;;;5075673;28;19928;-59
2024/03/01 07:20:06;;;;;;;;;;;3.30;87.60;;;;;;5076394;28;19924;-59
2024/03/01 07:22:39;;;;;;;;;;;3.30;87.10;;;;;;5071241;28;19985;-59
2024/03/01 07:25:06;;;;;;;;;;;3.30;87.50;;;;;;5073984;28;20577;-61
2024/03/01 07:27:41;;;;;;;;;;;3.30;87.00;;;;;;5075759;28;19932;-59
2024/03/01 07:30:15;;;;;;;;;;;3.40;87.10;;;;;;5071106;28;19931;-59
2024/03/01 07:32:49;;;;;;;;;;;3.50;87.50;;;;;;5075953;28;19932;-60
2024/03/01 07:35:22;;;;;;;;;;;3.50;86.80;;;;;;5077186;28;20370;-60
2024/03/01 07:37:55;;;;;;;;;;;3.50;87.00;;;;;;5075592;28;19930;-59
2024/03/01 07:40:28;;;;;;;;;;;3.60;87.50;;;;;;5077377;28;19936;-57
2024/03/01 07:43:01;;;;;;;;;;;3.70;87.30;;;;;;5077377;28;19924;-58
2024/03/01 07:45:34;;;;;;;;;;;3.70;87.00;;;;;;5071721;28;19935;-61
2024/03/01 07:48:09;;;;;;;;;;;3.70;87.20;;;;;;5074058;28;19932;-60
2024/03/01 07:50:42;;;;;;;;;;;3.70;87.30;;;;;;5074478;28;20043;-59
2024/03/01 07:53:16;;;;;;;;;;;3.80;87.50;;;;;;5076419;28;19935;-60
2024/03/01 07:55:49;;;;;;;;;;;3.70;87.10;;;;;;5075711;28;20028;-61
2024/03/01 07:58:21;;;;;;;;;;;3.80;87.30;;;;;;5076107;28;19952;-59
2024/03/01 08:00:56;;;;;;;;;;;3.90;87.70;;;;;;5074031;28;20013;-59
2024/03/01 08:03:55;;;;;;;;;;;4.00;88.00;;;;;;5075433;28;19928;-59
2024/03/01 08:06:30;;;;;;;;;;;4.10;87.80;;;;;;5076421;28;19936;-59
2024/03/01 08:09:04;;;;;;;;;;;4.20;88.10;;;;;;5074016;28;19930;-60
2024/03/01 08:11:40;;;;;;;;;;;4.20;87.90;;;;;;5075809;28;19931;-60
2024/03/01 08:14:20;;;;;;;;;;;4.30;87.90;;;;;;5067647;28;20011;-59
2024/03/01 08:16:54;;;;;;;;;;;4.20;87.90;;;;;;5073880;28;19999;-59
2024/03/01 08:19:33;;;;;;;;;;;4.30;88.00;;;;;;5070905;28;19924;-59
2024/03/01 08:22:09;;;;;;;;;;;4.40;87.80;;;;;;5072527;28;20394;-59
2024/03/01 08:24:44;;;;;;;;;;;4.50;87.90;;;;;;5075598;28;19967;-60
2024/03/01 08:27:22;;;;;;;;;;;4.60;87.80;;;;;;5073740;28;19939;-61
2024/03/01 08:30:20;;;;;;;;;;;4.60;87.90;;;;;;5075291;28;20299;-61
2024/03/01 08:32:59;;;;;;;;;;;4.60;88.00;;;;;;5072596;28;19932;-59
2024/03/01 08:35:34;;;;;;;;;;;4.60;88.10;;;;;;5071627;28;19935;-63
2024/03/01 08:38:28;;;;;;;;;;;4.60;88.20;;;;;;5073235;28;19932;-60
2024/03/01 08:41:03;;;;;;;;;;;4.70;88.20;;;;;;5076257;28;20003;-59
2024/03/01 08:44:00;;;;;;;;;;;4.70;88.10;;;;;;5073331;28;20065;-59
2024/03/01 08:46:34;;;;;;;;;;;4.70;88.30;;;;;;5070513;28;19932;-61
2024/03/01 08:49:22;;;;;;;;;;;4.70;88.40;;;;;;5075783;28;19951;-63
2024/03/01 08:51:55;;;;;;;;;;;4.70;88.00;;;;;;5075104;28;19928;-63
2024/03/01 08:54:26;;;;;;;;;;;4.70;88.50;;;;;;5071065;28;20350;-59
2024/03/01 08:57:11;;;;;;;;;;;4.80;88.40;;;;;;5073683;28;20342;-60
2024/03/01 08:59:50;;;;;;;;;;;4.90;88.20;;;;;;5071483;28;20036;-59
2024/03/01 09:02:43;;;;;;;;;;;4.90;88.20;;;;;;5066714;28;19964;-59
2024/03/01 09:05:16;;;;;;;;;;;5.00;88.40;;;;;;5074109;28;19931;-60
2024/03/01 09:07:50;;;;;;;;;;;5.00;88.50;;;;;;5073909;28;19939;-59
2024/03/01 09:10:32;;;;;;;;;;;5.00;88.30;;;;;;5077823;28;19982;-58
2024/03/01 09:13:06;;;;;;;;;;;5.10;88.50;;;;;;5077441;28;19932;-58
2024/03/01 09:15:40;;;;;;;;;;;5.10;88.30;;;;;;5073433;28;19936;-58
2024/03/01 09:18:32;;;;;;;;;;;5.20;88.40;;;;;;5077217;28;19978;-58
2024/03/01 09:21:17;;;;;;;;;;;5.10;88.40;;;;;;5073675;28;19936;-60
2024/03/01 09:23:51;;;;;;;;;;;5.20;88.40;;;;;;5076876;28;19929;-60
2024/03/01 09:26:26;;;;;;;;;;;5.20;88.20;;;;;;5077047;28;19924;-58
2024/03/01 09:29:01;;;;;;;;;;;5.20;88.60;;;;;;5078107;28;20444;-58
2024/03/01 09:31:35;;;;;;;;;;;5.20;88.40;;;;;;5076990;28;19934;-64
2024/03/01 09:34:10;;;;;;;;;;;5.30;88.50;;;;;;5078107;28;19924;-58
2024/03/01 09:36:44;;;;;;;;;;;5.40;88.40;;;;;;5078787;28;20017;-59
2024/03/01 09:39:16;;;;;;;;;;;5.40;88.30;;;;;;5078008;28;19929;-60
2024/03/01 09:42:04;;;;;;;;;;;5.50;88.30;;;;;;5075332;28;19928;-59
2024/03/01 09:44:43;;;;;;;;;;;5.60;88.20;;;;;;5078689;28;20291;-60
2024/03/01 09:47:27;;;;;;;;;;;5.80;87.90;;;;;;5073302;28;20815;-60
2024/03/01 09:50:11;;;;;;;;;;;5.90;87.60;;;;;;5076431;28;19924;-59
2024/03/01 09:52:48;;;;;;;;;;;6.00;87.50;;;;;;5077845;28;19929;-58
2024/03/01 09:55:27;;;;;;;;;;;6.10;87.60;;;;;;5077538;28;19964;-58
2024/03/01 09:58:06;;;;;;;;;;;6.30;87.40;;;;;;5077635;28;19932;-59
2024/03/01 10:00:45;;;;;;;;;;;6.40;87.50;;;;;;5075851;28;19935;-59
2024/03/01 10:03:22;;;;;;;;;;;6.70;87.10;;;;;;5076294;28;19928;-59
2024/03/01 10:06:02;;;;;;;;;;;7.00;86.50;;;;;;5073479;28;19935;-59
2024/03/01 10:08:44;;;;;;;;;;;7.20;85.80;;;;;;5076807;28;19981;-59
2024/03/01 10:11:24;;;;;;;;;;;7.40;85.40;;;;;;5078444;28;20256;-60
2024/03/01 10:14:03;;;;;;;;;;;7.70;84.70;;;;;;5078033;28;19974;-59
2024/03/01 10:16:45;;;;;;;;;;;7.80;84.40;;;;;;5070903;28;20023;-58
2024/03/01 10:19:31;;;;;;;;;;;7.80;84.60;;;;;;5076701;28;19928;-57
2024/03/01 10:22:15;;;;;;;;;;;7.90;84.70;;;;;;5076843;28;19925;-58
2024/03/01 10:24:57;;;;;;;;;;;8.00;84.30;;;;;;5073577;28;19928;-59
2024/03/01 10:27:36;;;;;;;;;;;8.20;84.10;;;;;;5071371;28;20276;-59
2024/03/01 10:30:11;;;;;;;;;;;8.30;84.10;;;;;;5074558;28;21613;-59
2024/03/01 10:32:51;;;;;;;;;;;8.40;84.00;;;;;;5077239;28;19935;-59
2024/03/01 10:35:25;;;;;;;;;;;8.40;83.60;;;;;;5077106;28;20298;-59
2024/03/01 10:38:07;;;;;;;;;;;8.30;84.10;;;;;;5075101;28;19931;-58
2024/03/01 10:40:47;;;;;;;;;;;8.40;83.50;;;;;;5074226;28;20379;-58
2024/03/01 10:43:25;;;;;;;;;;;8.40;83.60;;;;;;5074482;28;19930;-60
2024/03/01 10:46:02;;;;;;;;;;;8.50;83.20;;;;;;5074326;28;19944;-58
2024/03/01 10:48:38;;;;;;;;;;;8.50;83.00;;;;;;5074472;28;20010;-58
2024/03/01 10:51:14;;;;;;;;;;;8.60;83.10;;;;;;5074520;28;20513;-58
2024/03/01 10:53:50;;;;;;;;;;;8.70;83.00;;;;;;5075899;28;19924;-58
2024/03/01 10:56:23;;;;;;;;;;;8.70;82.70;;;;;;5077330;28;20337;-58
2024/03/01 10:59:07;;;;;;;;;;;8.80;82.40;;;;;;5071595;28;20303;-58
2024/03/01 11:01:47;;;;;;;;;;;8.80;82.80;;;;;;5071756;28;19928;-57
2024/03/01 11:07:58;;;;;;;;;;;9.10;81.70;;;;;;5073894;28;20017;-58
2024/03/01 11:10:36;;;;;;;;;;;9.10;82.20;;;;;;5072793;28;20384;-58
2024/03/01 11:13:13;;;;;;;;;;;9.10;82.00;;;;;;5073222;28;20723;-57
2024/03/01 11:15:48;;;;;;;;;;;9.20;82.20;;;;;;5075762;28;19925;-59
2024/03/01 11:18:24;;;;;;;;;;;9.20;82.10;;;;;;5071407;28;19935;-58
2024/03/01 11:21:01;;;;;;;;;;;9.30;82.00;;;;;;5077852;28;19974;-58
2024/03/01 11:23:39;;;;;;;;;;;9.30;81.80;;;;;;5077460;28;19924;-57
2024/03/01 11:26:17;;;;;;;;;;;9.40;82.20;;;;;;5072637;28;19970;-58
2024/03/01 11:28:56;;;;;;;;;;;9.40;81.70;;;;;;5072039;28;19929;-59
2024/03/01 11:31:30;;;;;;;;;;;9.40;82.00;;;;;;5074769;28;19929;-57
2024/03/01 11:34:06;;;;;;;;;;;9.40;81.70;;;;;;5071816;28;19959;-58
2024/03/01 11:36:47;;;;;;;;;;;9.40;81.90;;;;;;5077006;28;19932;-58
2024/03/01 11:39:28;;;;;;;;;;;9.50;82.10;;;;;;5075752;28;19928;-58
2024/03/01 11:42:05;;;;;;;;;;;9.60;81.50;;;;;;5074195;28;20379;-58
2024/03/01 11:44:42;;;;;;;;;;;9.70;81.40;;;;;;5073342;28;19935;-59
2024/03/01 11:47:12;;;;;;;;;;;9.70;82.10;;;;;;5073458;28;20798;-57
2024/03/01 11:50:00;;;;;;;;;;;9.70;81.70;;;;;;5073210;28;19940;-59
2024/03/01 11:52:46;;;;;;;;;;;9.80;81.70;;;;;;5074195;28;19928;-60
2024/03/01 11:55:24;;;;;;;;;;;9.90;81.40;;;;;;5074313;28;20430;-58
2024/03/01 11:58:03;;;;;;;;;;;9.90;81.60;;;;;;5074804;28;20276;-58
2024/03/01 12:00:44;;;;;;;;;;;9.90;81.50;;;;;;5072008;28;19963;-60
2024/03/01 12:03:41;;;;;;;;;;;9.90;81.60;;;;;;5074554;28;22641;-59
2024/03/01 12:06:29;;;;;;;;;;;9.80;81.90;;;;;;5075966;28;20008;-58
2024/03/01 12:09:05;;;;;;;;;;;9.80;81.70;;;;;;5077189;28;19969;-58
2024/03/01 12:11:47;;;;;;;;;;;9.80;81.50;;;;;;5072039;28;20010;-59
2024/03/01 12:14:25;;;;;;;;;;;9.80;81.30;;;;;;5075207;28;19931;-58
2024/03/01 12:17:01;;;;;;;;;;;9.80;81.20;;;;;;5075116;28;19932;-57
2024/03/01 12:19:40;;;;;;;;;;;9.70;81.20;;;;;;5071224;28;20020;-59
2024/03/01 12:22:25;;;;;;;;;;;9.70;81.20;;;;;;5074899;28;19924;-57
2024/03/01 12:25:00;;;;;;;;;;;9.70;81.10;;;;;;5075911;28;20280;-58
2024/03/01 12:27:39;;;;;;;;;;;9.70;81.30;;;;;;5073816;28;19967;-62
2024/03/01 12:30:19;;;;;;;;;;;9.70;81.00;;;;;;5073001;28;19978;-59
2024/03/01 12:33:01;;;;;;;;;;;9.70;81.40;;;;;;5077822;28;20433;-58
2024/03/01 12:35:37;;;;;;;;;;;9.70;81.40;;;;;;5072842;28;19924;-58
2024/03/01 12:38:16;;;;;;;;;;;9.70;81.30;;;;;;5074709;28;19928;-61
2024/03/01 12:40:59;;;;;;;;;;;9.70;81.30;;;;;;5071370;28;19928;-61
2024/03/01 12:43:44;;;;;;;;;;;9.70;81.50;;;;;;5077276;28;19928;-60
2024/03/01 12:46:27;;;;;;;;;;;9.70;81.50;;;;;;5079152;28;20009;-59
2024/03/01 12:49:08;;;;;;;;;;;9.80;81.40;;;;;;5078633;28;19978;-60
2024/03/01 12:51:48;;;;;;;;;;;9.80;81.20;;;;;;5077080;28;19931;-61
2024/03/01 12:54:26;;;;;;;;;;;9.80;81.30;;;;;;5078204;28;19981;-60
2024/03/01 12:57:08;;;;;;;;;;;9.80;81.30;;;;;;5077714;28;20311;-60
2024/03/01 12:59:46;;;;;;;;;;;9.80;81.30;;;;;;5074475;28;19959;-58
2024/03/01 13:02:43;;;;;;;;;;;9.80;81.20;;;;;;5075033;28;19924;-59
2024/03/01 13:05:23;;;;;;;;;;;9.80;81.10;;;;;;5080530;28;19924;-61
2024/03/01 13:07:57;;;;;;;;;;;9.80;81.30;;;;;;5082078;28;19924;-59
2024/03/01 13:10:25;;;;;;;;;;;9.80;81.20;;;;;;5075697;28;20393;-59
2024/03/01 13:13:00;;;;;;;;;;;9.80;81.20;;;;;;5072765;28;20375;-61
2024/03/01 13:15:36;;;;;;;;;;;9.70;81.40;;;;;;5078879;28;20376;-61
2024/03/01 13:18:12;;;;;;;;;;;9.70;81.30;;;;;;5078499;28;19940;-60
2024/03/01 13:20:52;;;;;;;;;;;9.80;81.40;;;;;;5076844;28;19932;-60
2024/03/01 13:23:31;;;;;;;;;;;9.70;81.60;;;;;;5089303;28;20406;-60
2024/03/01 13:26:12;;;;;;;;;;;9.80;81.40;;;;;;5079142;28;19924;-62
2024/03/01 13:28:50;;;;;;;;;;;9.70;81.40;;;;;;5073744;28;19951;-61
2024/03/01 13:31:26;;;;;;;;;;;9.70;81.30;;;;;;5074341;28;20003;-61
2024/03/01 13:33:59;;;;;;;;;;;9.70;81.40;;;;;;5078867;28;19977;-60
2024/03/01 13:36:35;;;;;;;;;;;9.70;81.40;;;;;;5079869;28;19925;-62
2024/03/01 13:39:14;;;;;;;;;;;9.80;81.60;;;;;;5077229;28;19924;-61
2024/03/01 13:41:54;;;;;;;;;;;9.80;81.50;;;;;;5077332;28;19950;-60
2024/03/01 13:44:31;;;;;;;;;;;9.70;81.60;;;;;;5079592;28;19938;-61
2024/03/01 13:47:14;;;;;;;;;;;9.80;81.70;;;;;;5077073;28;19928;-64
2024/03/01 13:49:50;;;;;;;;;;;9.80;81.70;;;;;;5074018;28;19924;-64
2024/03/01 13:52:24;;;;;;;;;;;9.80;81.70;;;;;;5076011;28;19924;-63
2024/03/01 13:54:58;;;;;;;;;;;9.70;81.70;;;;;;5075653;28;19939;-62
2024/03/01 13:57:33;;;;;;;;;;;9.70;81.60;;;;;;5078629;28;19935;-63
2024/03/01 14:00:14;;;;;;;;;;;9.70;81.60;;;;;;5078782;28;19924;-66
2024/03/01 14:02:48;;;;;;;;;;;9.70;81.50;;;;;;5077774;28;19925;-64
2024/03/01 14:05:25;;;;;;;;;;;9.70;81.50;;;;;;5074856;28;20436;-63
2024/03/01 14:08:00;;;;;;;;;;;9.80;81.20;;;;;;5074491;28;19928;-63
2024/03/01 14:10:34;;;;;;;;;;;9.90;81.10;;;;;;5077084;28;19928;-64
2024/03/01 14:13:10;;;;;;;;;;;9.90;81.00;;;;;;5078062;28;19932;-63
2024/03/01 14:15:44;;;;;;;;;;;10.00;81.00;;;;;;5075526;28;20607;-64
2024/03/01 14:18:17;;;;;;;;;;;10.00;80.80;;;;;;5075442;28;19934;-64
2024/03/01 14:20:50;;;;;;;;;;;10.10;80.80;;;;;;5082886;28;19935;-64
2024/03/01 14:23:24;;;;;;;;;;;10.10;80.80;;;;;;5075818;28;20016;-64
2024/03/01 14:25:58;;;;;;;;;;;10.20;80.50;;;;;;5075887;28;19924;-63
2024/03/01 14:28:33;;;;;;;;;;;10.20;80.40;;;;;;5073228;28;19928;-65
2024/03/01 14:31:09;;;;;;;;;;;10.20;80.20;;;;;;5077210;28;20290;-63
2024/03/01 14:33:45;;;;;;;;;;;10.20;80.20;;;;;;5073881;28;20017;-63
2024/03/01 14:36:19;;;;;;;;;;;10.20;80.20;;;;;;5078603;28;19924;-64
2024/03/01 14:38:54;;;;;;;;;;;10.30;80.30;;;;;;5078869;28;19967;-64
2024/03/01 14:41:35;;;;;;;;;;;10.30;80.10;;;;;;5078161;28;19939;-64
2024/03/01 14:44:10;;;;;;;;;;;10.40;80.00;;;;;;5078205;28;19927;-64
2024/03/01 14:46:38;;;;;;;;;;;10.40;79.90;;;;;;5074978;28;19935;-64
2024/03/01 14:49:12;;;;;;;;;;;10.40;80.10;;;;;;5074265;28;19928;-64
2024/03/01 14:51:45;;;;;;;;;;;10.40;79.70;;;;;;5075550;28;19939;-63
2024/03/01 14:54:18;;;;;;;;;;;10.40;79.80;;;;;;5076923;28;19953;-64
2024/03/01 14:56:53;;;;;;;;;;;10.30;79.90;;;;;;5078240;28;19925;-59
2024/03/01 14:59:27;;;;;;;;;;;10.20;80.10;;;;;;5067344;28;20033;-58
2024/03/01 15:02:03;;;;;;;;;;;10.20;80.00;;;;;;5072859;28;20038;-59
2024/03/01 15:04:37;;;;;;;;;;;10.20;80.20;;;;;;5080001;28;20057;-58
2024/03/01 15:07:10;;;;;;;;;;;10.20;80.40;;;;;;5075164;28;19931;-58
2024/03/01 15:09:44;;;;;;;;;;;10.20;80.60;;;;;;5075045;28;19928;-58
2024/03/01 15:12:17;;;;;;;;;;;10.10;80.30;;;;;;5077333;28;19929;-58
2024/03/01 15:14:51;;;;;;;;;;;10.10;80.50;;;;;;5076429;28;19935;-58
2024/03/01 15:17:27;;;;;;;;;;;10.10;80.70;;;;;;5075497;28;19970;-58
2024/03/01 15:19:54;;;;;;;;;;;10.00;80.80;;;;;;5074083;28;19941;-59
2024/03/01 15:22:27;;;;;;;;;;;10.00;81.00;;;;;;5077128;28;19931;-58